sensor_id;sensor_type;location;lat;lon;timestamp;pressure;altitude;pressure_sealevel;temperature;humidity
67818;BME280;54614;47.576;7.524;2023-08-30T00:00:56;97954.25;;;24.02;50.06
67818;BME280;54614;47.576;7.524;2023-08-30T00:03:22;97953.88;;;23.98;50.04
67818;BME280;54614;47.576;7.524;2023-08-30T00:05:48;97950.09;;;24.06;49.64
67818;BME280;54614;47.576;7.524;2023-08-30T00:08:13;97957.56;;;24.04;49.67
67818;BME280;54614;47.576;7.524;2023-08-30T00:10:44;97953.81;;;24.05;49.54
67818;BME280;54614;47.576;7.524;2023-08-30T00:13:10;97953.44;;;24.01;49.96
67818;BME280;54614;47.576;7.524;2023-08-30T00:15:36;97954.88;;;24.04;49.78
67818;BME280;54614;47.576;7.524;2023-08-30T00:18:02;97947.63;;;24.04;49.70
67818;BME280;54614;47.576;7.524;2023-08-30T00:20:28;97953.66;;;24.00;50.05
67818;BME280;54614;47.576;7.524;2023-08-30T00:22:53;97954.72;;;23.99;49.83
67818;BME280;54614;47.576;7.524;2023-08-30T00:25:20;97957.63;;;23.97;50.00
67818;BME280;54614;47.576;7.524;2023-08-30T00:27:46;97947.69;;;23.98;49.80
67818;BME280;54614;47.576;7.524;2023-08-30T00:30:12;97944.19;;;23.97;49.69
67818;BME280;54614;47.576;7.524;2023-08-30T00:32:38;97951.44;;;23.97;49.93
67818;BME280;54614;47.576;7.524;2023-08-30T00:35:04;97956.78;;;23.97;49.80
67818;BME280;54614;47.576;7.524;2023-08-30T00:37:30;97954.94;;;23.97;50.00
67818;BME280;54614;47.576;7.524;2023-08-30T00:39:56;97953.66;;;24.00;49.96
67818;BME280;54614;47.576;7.524;2023-08-30T00:42:22;97945.38;;;24.01;49.58
67818;BME280;54614;47.576;7.524;2023-08-30T00:44:47;97949.34;;;23.99;49.75
67818;BME280;54614;47.576;7.524;2023-08-30T00:47:13;97940.25;;;24.00;49.72
67818;BME280;54614;47.576;7.524;2023-08-30T00:49:40;97942.78;;;23.95;49.59
67818;BME280;54614;47.576;7.524;2023-08-30T00:52:09;97938.38;;;24.00;49.82
67818;BME280;54614;47.576;7.524;2023-08-30T00:54:37;97947.47;;;23.99;49.86
67818;BME280;54614;47.576;7.524;2023-08-30T00:57:06;97952.03;;;23.99;49.57
67818;BME280;54614;47.576;7.524;2023-08-30T00:59:33;97954.50;;;24.00;49.36
67818;BME280;54614;47.576;7.524;2023-08-30T01:02:00;97943.16;;;23.98;49.87
67818;BME280;54614;47.576;7.524;2023-08-30T01:04:29;97945.22;;;23.96;49.61
67818;BME280;54614;47.576;7.524;2023-08-30T01:06:55;97948.50;;;23.98;49.45
67818;BME280;54614;47.576;7.524;2023-08-30T01:09:22;97939.41;;;23.99;49.49
67818;BME280;54614;47.576;7.524;2023-08-30T01:12:10;97938.00;;;23.97;49.40
67818;BME280;54614;47.576;7.524;2023-08-30T01:14:45;97940.09;;;23.95;49.83
67818;BME280;54614;47.576;7.524;2023-08-30T01:17:13;97941.72;;;23.96;49.44
67818;BME280;54614;47.576;7.524;2023-08-30T01:27:54;97931.59;;;23.98;49.61
67818;BME280;54614;47.576;7.524;2023-08-30T01:30:22;97927.84;;;23.99;49.68
67818;BME280;54614;47.576;7.524;2023-08-30T01:32:51;97924.56;;;23.97;49.55
67818;BME280;54614;47.576;7.524;2023-08-30T01:35:17;97929.94;;;23.97;49.71
67818;BME280;54614;47.576;7.524;2023-08-30T01:37:46;97922.09;;;23.95;49.71
67818;BME280;54614;47.576;7.524;2023-08-30T01:40:13;97920.47;;;23.94;49.62
67818;BME280;54614;47.576;7.524;2023-08-30T01:42:42;97912.19;;;23.96;49.65
67818;BME280;54614;47.576;7.524;2023-08-30T01:45:11;97907.63;;;23.96;49.70
67818;BME280;54614;47.576;7.524;2023-08-30T01:47:41;97908.44;;;23.97;49.27
67818;BME280;54614;47.576;7.524;2023-08-30T01:50:09;97906.44;;;23.92;49.41
67818;BME280;54614;47.576;7.524;2023-08-30T01:52:36;97917.19;;;23.92;49.53
67818;BME280;54614;47.576;7.524;2023-08-30T01:55:03;97909.94;;;23.93;49.62
67818;BME280;54614;47.576;7.524;2023-08-30T01:57:29;97916.72;;;23.95;49.65
67818;BME280;54614;47.576;7.524;2023-08-30T01:59:54;97908.66;;;23.95;49.68
67818;BME280;54614;47.576;7.524;2023-08-30T02:02:20;97914.50;;;23.92;49.61
67818;BME280;54614;47.576;7.524;2023-08-30T02:04:46;97917.19;;;23.92;49.42
67818;BME280;54614;47.576;7.524;2023-08-30T02:07:22;97917.63;;;23.89;49.69
67818;BME280;54614;47.576;7.524;2023-08-30T02:10:02;97915.75;;;23.90;49.42
67818;BME280;54614;47.576;7.524;2023-08-30T02:12:46;97910.38;;;23.90;49.61
67818;BME280;54614;47.576;7.524;2023-08-30T02:15:14;97901.88;;;23.93;49.58
67818;BME280;54614;47.576;7.524;2023-08-30T02:17:41;97906.81;;;23.96;49.35
67818;BME280;54614;47.576;7.524;2023-08-30T02:20:09;97899.66;;;23.90;49.37
67818;BME280;54614;47.576;7.524;2023-08-30T02:22:35;97899.66;;;23.90;49.67
67818;BME280;54614;47.576;7.524;2023-08-30T02:25:02;97901.28;;;23.91;49.36
67818;BME280;54614;47.576;7.524;2023-08-30T02:27:31;97889.50;;;23.92;49.71
67818;BME280;54614;47.576;7.524;2023-08-30T02:29:57;97884.34;;;23.90;49.35
67818;BME280;54614;47.576;7.524;2023-08-30T02:32:23;97885.16;;;23.91;49.27
67818;BME280;54614;47.576;7.524;2023-08-30T02:34:52;97885.16;;;23.91;49.30
67818;BME280;54614;47.576;7.524;2023-08-30T02:37:19;97888.31;;;23.88;49.42
67818;BME280;54614;47.576;7.524;2023-08-30T02:39:44;97885.63;;;23.88;49.57
67818;BME280;54614;47.576;7.524;2023-08-30T02:42:10;97886.28;;;23.83;49.64
67818;BME280;54614;47.576;7.524;2023-08-30T02:44:36;97888.31;;;23.88;49.71
67818;BME280;54614;47.576;7.524;2023-08-30T02:47:02;97891.44;;;23.85;49.60
67818;BME280;54614;47.576;7.524;2023-08-30T02:49:27;97896.38;;;23.88;49.25
67818;BME280;54614;47.576;7.524;2023-08-30T02:51:53;97891.22;;;23.86;49.59
67818;BME280;54614;47.576;7.524;2023-08-30T02:54:19;97887.09;;;23.84;49.52
67818;BME280;54614;47.576;7.524;2023-08-30T02:56:45;97888.75;;;23.85;49.27
67818;BME280;54614;47.576;7.524;2023-08-30T02:59:12;97891.22;;;23.86;49.49
67818;BME280;54614;47.576;7.524;2023-08-30T03:01:38;97890.63;;;23.84;49.40
67818;BME280;54614;47.576;7.524;2023-08-30T03:04:07;97885.69;;;23.81;49.42
67818;BME280;54614;47.576;7.524;2023-08-30T03:06:34;97885.03;;;23.86;49.62
67818;BME280;54614;47.576;7.524;2023-08-30T03:09:01;97893.06;;;23.86;49.60
67818;BME280;54614;47.576;7.524;2023-08-30T03:11:28;97877.19;;;23.84;49.62
67818;BME280;54614;47.576;7.524;2023-08-30T03:13:54;97880.47;;;23.86;49.31
67818;BME280;54614;47.576;7.524;2023-08-30T03:16:20;97879.66;;;23.86;49.64
67818;BME280;54614;47.576;7.524;2023-08-30T03:18:47;97883.38;;;23.85;49.43
67818;BME280;54614;47.576;7.524;2023-08-30T03:21:13;97878.81;;;23.85;49.57
67818;BME280;54614;47.576;7.524;2023-08-30T03:23:43;97878.59;;;23.87;49.12
67818;BME280;54614;47.576;7.524;2023-08-30T03:28:37;97873.47;;;23.85;49.38
67818;BME280;54614;47.576;7.524;2023-08-30T03:31:15;97877.78;;;23.86;49.61
67818;BME280;54614;47.576;7.524;2023-08-30T03:33:41;97876.00;;;23.80;49.67
67818;BME280;54614;47.576;7.524;2023-08-30T03:36:11;97876.38;;;23.84;49.65
67818;BME280;54614;47.576;7.524;2023-08-30T03:38:38;97876.00;;;23.80;49.64
67818;BME280;54614;47.576;7.524;2023-08-30T03:41:04;97872.88;;;23.83;49.27
67818;BME280;54614;47.576;7.524;2023-08-30T03:43:32;97880.69;;;23.85;49.37
67818;BME280;54614;47.576;7.524;2023-08-30T03:45:59;97884.88;;;23.81;49.67
67818;BME280;54614;47.576;7.524;2023-08-30T03:48:26;97881.13;;;23.82;49.37
67818;BME280;54614;47.576;7.524;2023-08-30T03:50:52;97881.38;;;23.80;49.31
67818;BME280;54614;47.576;7.524;2023-08-30T03:53:18;97879.50;;;23.81;49.40
67818;BME280;54614;47.576;7.524;2023-08-30T03:55:44;97882.19;;;23.81;49.26
67818;BME280;54614;47.576;7.524;2023-08-30T03:58:10;97881.00;;;23.76;49.62
67818;BME280;54614;47.576;7.524;2023-08-30T04:00:38;97884.19;;;23.85;49.16
67818;BME280;54614;47.576;7.524;2023-08-30T04:03:05;97882.78;;;23.83;49.23
67818;BME280;54614;47.576;7.524;2023-08-30T04:05:35;97886.28;;;23.83;49.50
67818;BME280;54614;47.576;7.524;2023-08-30T04:08:03;97889.78;;;23.84;49.08
67818;BME280;54614;47.576;7.524;2023-08-30T04:10:29;97887.56;;;23.81;49.64
67818;BME280;54614;47.576;7.524;2023-08-30T04:12:55;97882.19;;;23.81;49.48
67818;BME280;54614;47.576;7.524;2023-08-30T04:15:21;97878.91;;;23.78;49.48
67818;BME280;54614;47.576;7.524;2023-08-30T04:17:46;97884.44;;;23.84;49.13
67818;BME280;54614;47.576;7.524;2023-08-30T04:20:12;97886.66;;;23.87;49.27
67818;BME280;54614;47.576;7.524;2023-08-30T04:22:38;97887.19;;;23.77;49.62
67818;BME280;54614;47.576;7.524;2023-08-30T04:25:04;97889.66;;;23.78;49.16
67818;BME280;54614;47.576;7.524;2023-08-30T04:27:30;97895.16;;;23.84;49.16
67818;BME280;54614;47.576;7.524;2023-08-30T04:29:56;97882.34;;;23.86;49.30
67818;BME280;54614;47.576;7.524;2023-08-30T04:32:22;97892.84;;;23.87;49.04
67818;BME280;54614;47.576;7.524;2023-08-30T04:34:48;97887.94;;;23.84;49.18
67818;BME280;54614;47.576;7.524;2023-08-30T04:37:13;97892.03;;;23.87;48.85
67818;BME280;54614;47.576;7.524;2023-08-30T04:39:40;97889.56;;;23.85;48.85
67818;BME280;54614;47.576;7.524;2023-08-30T04:42:06;97894.94;;;23.85;49.25
67818;BME280;54614;47.576;7.524;2023-08-30T04:44:32;97884.44;;;23.84;49.26
67818;BME280;54614;47.576;7.524;2023-08-30T04:46:58;97885.84;;;23.86;48.85
67818;BME280;54614;47.576;7.524;2023-08-30T04:49:24;97883.81;;;23.82;49.12
67818;BME280;54614;47.576;7.524;2023-08-30T04:51:54;97885.03;;;23.86;48.99
67818;BME280;54614;47.576;7.524;2023-08-30T04:54:20;97887.47;;;23.87;49.02
67818;BME280;54614;47.576;7.524;2023-08-30T04:56:46;97887.25;;;23.89;48.75
67818;BME280;54614;47.576;7.524;2023-08-30T04:59:11;97887.25;;;23.89;48.86
67818;BME280;54614;47.576;7.524;2023-08-30T05:01:37;97884.81;;;23.87;48.78
67818;BME280;54614;47.576;7.524;2023-08-30T05:04:04;97889.56;;;23.85;48.89
67818;BME280;54614;47.576;7.524;2023-08-30T05:06:31;97889.94;;;23.89;48.96
67818;BME280;54614;47.576;7.524;2023-08-30T05:08:57;97896.97;;;23.90;49.02
67818;BME280;54614;47.576;7.524;2023-08-30T05:11:23;97898.81;;;23.89;49.14
67818;BME280;54614;47.576;7.524;2023-08-30T05:13:49;97895.31;;;23.89;49.09
67818;BME280;54614;47.576;7.524;2023-08-30T05:16:15;97895.09;;;23.90;49.25
67818;BME280;54614;47.576;7.524;2023-08-30T05:18:41;97900.69;;;23.89;49.00
67818;BME280;54614;47.576;7.524;2023-08-30T05:21:06;97895.31;;;23.89;49.09
67818;BME280;54614;47.576;7.524;2023-08-30T05:23:32;97897.41;;;23.87;49.08
67818;BME280;54614;47.576;7.524;2023-08-30T05:25:58;97906.06;;;23.89;49.33
67818;BME280;54614;47.576;7.524;2023-08-30T05:28:24;97900.91;;;23.87;49.39
67818;BME280;54614;47.576;7.524;2023-08-30T05:30:50;97897.63;;;23.85;49.27
67818;BME280;54614;47.576;7.524;2023-08-30T05:33:15;97901.97;;;23.86;49.24
67818;BME280;54614;47.576;7.524;2023-08-30T05:35:41;97898.59;;;23.72;49.27
67818;BME280;54614;47.576;7.524;2023-08-30T05:38:07;97905.84;;;23.22;49.00
67818;BME280;54614;47.576;7.524;2023-08-30T05:40:33;97911.03;;;22.92;49.41
67818;BME280;54614;47.576;7.524;2023-08-30T05:42:59;97908.72;;;22.58;49.84
67818;BME280;54614;47.576;7.524;2023-08-30T05:45:25;97910.41;;;22.07;50.71
67818;BME280;54614;47.576;7.524;2023-08-30T05:47:51;97916.56;;;22.14;50.84
67818;BME280;54614;47.576;7.524;2023-08-30T05:50:17;97915.91;;;22.19;50.55
67818;BME280;54614;47.576;7.524;2023-08-30T05:52:42;97915.94;;;22.12;50.89
67818;BME280;54614;47.576;7.524;2023-08-30T05:55:10;97912.59;;;22.24;50.93
67818;BME280;54614;47.576;7.524;2023-08-30T05:57:36;97914.06;;;22.19;50.82
67818;BME280;54614;47.576;7.524;2023-08-30T06:00:03;97910.59;;;21.99;50.97
67818;BME280;54614;47.576;7.524;2023-08-30T06:02:30;97911.19;;;22.14;51.39
67818;BME280;54614;47.576;7.524;2023-08-30T06:04:56;97910.59;;;21.99;51.17
67818;BME280;54614;47.576;7.524;2023-08-30T06:07:22;97902.59;;;21.86;52.09
67818;BME280;54614;47.576;7.524;2023-08-30T06:09:47;97908.84;;;21.67;55.04
67818;BME280;54614;47.576;7.524;2023-08-30T06:12:13;97909.19;;;22.03;54.58
67818;BME280;54614;47.576;7.524;2023-08-30T06:14:39;97911.81;;;22.16;55.74
67818;BME280;54614;47.576;7.524;2023-08-30T06:17:04;97910.56;;;22.19;55.14
67818;BME280;54614;47.576;7.524;2023-08-30T06:19:30;97911.34;;;22.26;54.55
67818;BME280;54614;47.576;7.524;2023-08-30T06:21:56;97915.63;;;22.40;53.39
67818;BME280;54614;47.576;7.524;2023-08-30T06:24:22;97908.34;;;22.54;53.27
67818;BME280;54614;47.576;7.524;2023-08-30T06:26:48;97909.28;;;22.66;52.90
67818;BME280;54614;47.576;7.524;2023-08-30T06:29:13;97905.31;;;22.75;52.37
67818;BME280;54614;47.576;7.524;2023-08-30T06:31:39;97906.75;;;22.85;52.68
67818;BME280;54614;47.576;7.524;2023-08-30T06:34:07;97905.88;;;22.91;52.52
67818;BME280;54614;47.576;7.524;2023-08-30T06:36:33;97907.09;;;22.95;52.31
67818;BME280;54614;47.576;7.524;2023-08-30T06:38:58;97912.84;;;22.98;52.33
67818;BME280;54614;47.576;7.524;2023-08-30T06:41:24;97903.16;;;22.97;52.19
67818;BME280;54614;47.576;7.524;2023-08-30T06:43:50;97905.38;;;23.00;52.38
67818;BME280;54614;47.576;7.524;2023-08-30T06:46:15;97910.53;;;23.02;52.36
67818;BME280;54614;47.576;7.524;2023-08-30T06:48:41;97901.44;;;23.03;52.40
67818;BME280;54614;47.576;7.524;2023-08-30T06:51:07;97904.13;;;23.03;52.30
67818;BME280;54614;47.576;7.524;2023-08-30T06:53:32;97898.34;;;23.06;51.92
67818;BME280;54614;47.576;7.524;2023-08-30T06:55:59;97900.81;;;23.07;52.01
67818;BME280;54614;47.576;7.524;2023-08-30T06:58:26;97905.56;;;23.05;51.96
67818;BME280;54614;47.576;7.524;2023-08-30T07:00:53;97899.16;;;23.06;52.29
67818;BME280;54614;47.576;7.524;2023-08-30T07:03:19;97904.31;;;23.08;51.97
67818;BME280;54614;47.576;7.524;2023-08-30T07:05:45;97897.06;;;23.08;52.21
67818;BME280;54614;47.576;7.524;2023-08-30T07:08:16;97906.56;;;23.11;52.31
67818;BME280;54614;47.576;7.524;2023-08-30T07:10:42;97914.53;;;23.18;52.14
67818;BME280;54614;47.576;7.524;2023-08-30T07:13:08;97900.75;;;23.14;52.12
67818;BME280;54614;47.576;7.524;2023-08-30T07:15:39;97900.53;;;23.15;51.65
67818;BME280;54614;47.576;7.524;2023-08-30T07:18:06;97905.06;;;23.15;51.96
67818;BME280;54614;47.576;7.524;2023-08-30T07:20:32;97905.47;;;23.19;51.64
67818;BME280;54614;47.576;7.524;2023-08-30T07:22:58;97906.13;;;23.14;51.80
67818;BME280;54614;47.576;7.524;2023-08-30T07:25:24;97910.81;;;23.19;52.04
67818;BME280;54614;47.576;7.524;2023-08-30T07:27:50;97911.44;;;23.21;51.75
67818;BME280;54614;47.576;7.524;2023-08-30T07:30:16;97908.31;;;23.24;51.65
67818;BME280;54614;47.576;7.524;2023-08-30T07:32:42;97904.59;;;23.25;51.78
67818;BME280;54614;47.576;7.524;2023-08-30T07:35:08;97906.00;;;23.27;51.45
67818;BME280;54614;47.576;7.524;2023-08-30T07:37:35;97901.06;;;23.24;51.67
67818;BME280;54614;47.576;7.524;2023-08-30T07:40:02;97899.22;;;23.25;51.80
67818;BME280;54614;47.576;7.524;2023-08-30T07:42:30;97902.50;;;23.27;51.71
67818;BME280;54614;47.576;7.524;2023-08-30T07:44:56;97909.28;;;23.29;51.69
67818;BME280;54614;47.576;7.524;2023-08-30T07:47:21;97908.47;;;23.29;52.12
67818;BME280;54614;47.576;7.524;2023-08-30T07:49:47;97908.47;;;23.29;51.87
67818;BME280;54614;47.576;7.524;2023-08-30T07:52:13;97912.56;;;23.31;51.73
67818;BME280;54614;47.576;7.524;2023-08-30T07:54:40;97910.50;;;23.33;51.96
67818;BME280;54614;47.576;7.524;2023-08-30T07:57:07;97899.53;;;23.35;51.99
67818;BME280;54614;47.576;7.524;2023-08-30T07:59:35;97903.25;;;23.34;51.66
67818;BME280;54614;47.576;7.524;2023-08-30T08:02:02;97900.59;;;23.34;51.82
67818;BME280;54614;47.576;7.524;2023-08-30T08:04:28;97901.63;;;23.33;52.04
67818;BME280;54614;47.576;7.524;2023-08-30T08:06:54;97907.81;;;23.33;52.07
67818;BME280;54614;47.576;7.524;2023-08-30T08:09:20;97908.19;;;23.37;51.96
67818;BME280;54614;47.576;7.524;2023-08-30T08:11:49;97901.78;;;23.38;51.71
67818;BME280;54614;47.576;7.524;2023-08-30T08:14:15;97906.59;;;23.29;51.69
67818;BME280;54614;47.576;7.524;2023-08-30T08:16:41;97907.81;;;23.33;51.44
67818;BME280;54614;47.576;7.524;2023-08-30T08:19:07;97904.53;;;23.31;51.87
67818;BME280;54614;47.576;7.524;2023-08-30T08:21:34;97903.25;;;23.34;51.52
67818;BME280;54614;47.576;7.524;2023-08-30T08:24:00;97908.69;;;23.27;51.59
67818;BME280;54614;47.576;7.524;2023-08-30T08:26:27;97905.78;;;23.29;51.52
67818;BME280;54614;47.576;7.524;2023-08-30T08:28:54;97905.50;;;23.37;51.49
67818;BME280;54614;47.576;7.524;2023-08-30T08:31:22;97901.63;;;23.33;51.61
67818;BME280;54614;47.576;7.524;2023-08-30T08:34:05;97904.75;;;23.30;51.40
67818;BME280;54614;47.576;7.524;2023-08-30T08:36:31;97906.16;;;23.32;51.74
67818;BME280;54614;47.576;7.524;2023-08-30T08:38:57;97906.78;;;23.34;51.24
67818;BME280;54614;47.576;7.524;2023-08-30T08:41:28;97905.34;;;23.32;51.49
67818;BME280;54614;47.576;7.524;2023-08-30T08:43:58;97909.44;;;23.34;51.33
67818;BME280;54614;47.576;7.524;2023-08-30T08:46:28;97909.88;;;23.31;51.34
67818;BME280;54614;47.576;7.524;2023-08-30T08:48:57;97906.16;;;23.32;51.66
67818;BME280;54614;47.576;7.524;2023-08-30T08:51:25;97904.31;;;23.33;51.69
67818;BME280;54614;47.576;7.524;2023-08-30T08:53:52;97903.25;;;23.34;51.76
67818;BME280;54614;47.576;7.524;2023-08-30T08:56:21;97904.91;;;23.35;51.44
67818;BME280;54614;47.576;7.524;2023-08-30T08:58:47;97906.34;;;23.37;51.40
67818;BME280;54614;47.576;7.524;2023-08-30T09:01:14;97906.94;;;23.39;51.36
67818;BME280;54614;47.576;7.524;2023-08-30T09:03:40;97912.09;;;23.41;51.32
67818;BME280;54614;47.576;7.524;2023-08-30T09:06:06;97910.50;;;23.33;51.67
67818;BME280;54614;47.576;7.524;2023-08-30T09:08:32;97904.47;;;23.38;51.45
67818;BME280;54614;47.576;7.524;2023-08-30T09:10:58;97909.00;;;23.37;51.72
67818;BME280;54614;47.576;7.524;2023-08-30T09:13:23;97904.31;;;23.33;51.58
67818;BME280;54614;47.576;7.524;2023-08-30T09:15:49;97912.84;;;23.23;52.16
67818;BME280;54614;47.576;7.524;2023-08-30T09:18:17;97911.59;;;23.26;51.80
67818;BME280;54614;47.576;7.524;2023-08-30T09:20:43;97918.16;;;23.30;51.85
67818;BME280;54614;47.576;7.524;2023-08-30T09:23:21;97919.19;;;23.29;51.89
67818;BME280;54614;47.576;7.524;2023-08-30T09:25:54;97914.50;;;23.24;51.86
67818;BME280;54614;47.576;7.524;2023-08-30T09:28:20;97918.59;;;23.27;51.92
67818;BME280;54614;47.576;7.524;2023-08-30T09:30:51;97920.72;;;23.18;51.85
67818;BME280;54614;47.576;7.524;2023-08-30T09:33:31;97916.78;;;23.21;52.32
67818;BME280;54614;47.576;7.524;2023-08-30T09:36:00;97917.88;;;23.13;52.59
67818;BME280;54614;47.576;7.524;2023-08-30T09:38:26;97919.75;;;23.12;52.25
67818;BME280;54614;47.576;7.524;2023-08-30T09:41:05;97924.72;;;23.09;52.44
67818;BME280;54614;47.576;7.524;2023-08-30T09:43:32;97912.91;;;23.17;52.43
67818;BME280;54614;47.576;7.524;2023-08-30T09:46:03;97906.34;;;23.12;52.05
67818;BME280;54614;47.576;7.524;2023-08-30T09:48:32;97903.66;;;23.12;52.56
67818;BME280;54614;47.576;7.524;2023-08-30T09:50:59;97902.81;;;23.12;52.54
67818;BME280;54614;47.576;7.524;2023-08-30T09:53:29;97903.00;;;23.17;52.42
67818;BME280;54614;47.576;7.524;2023-08-30T09:55:57;97906.06;;;23.21;52.21
67818;BME280;54614;47.576;7.524;2023-08-30T09:58:24;97908.97;;;23.19;52.13
67818;BME280;54614;47.576;7.524;2023-08-30T10:00:54;97910.81;;;23.19;52.08
67818;BME280;54614;47.576;7.524;2023-08-30T10:03:20;97908.56;;;23.15;52.40
67818;BME280;54614;47.576;7.524;2023-08-30T10:05:47;97908.53;;;23.22;52.22
67818;BME280;54614;47.576;7.524;2023-08-30T10:08:17;97907.91;;;23.20;52.12
67818;BME280;54614;47.576;7.524;2023-08-30T10:10:43;97899.44;;;23.23;52.20
67818;BME280;54614;47.576;7.524;2023-08-30T10:13:10;97905.25;;;23.20;52.24
67818;BME280;54614;47.576;7.524;2023-08-30T10:15:44;97902.78;;;23.19;52.20
67818;BME280;54614;47.576;7.524;2023-08-30T10:18:19;97907.25;;;23.25;52.20
67818;BME280;54614;47.576;7.524;2023-08-30T10:20:47;97899.31;;;23.36;51.75
67818;BME280;54614;47.576;7.524;2023-08-30T10:23:16;97897.19;;;23.45;51.56
67818;BME280;54614;47.576;7.524;2023-08-30T10:25:44;97893.00;;;23.49;51.73
67818;BME280;54614;47.576;7.524;2023-08-30T10:28:11;97885.34;;;23.53;51.58
67818;BME280;54614;47.576;7.524;2023-08-30T10:30:38;97893.59;;;23.51;51.61
67818;BME280;54614;47.576;7.524;2023-08-30T10:33:13;97884.50;;;23.52;51.30
67818;BME280;54614;47.576;7.524;2023-08-30T10:35:50;97887.41;;;23.51;51.75
67818;BME280;54614;47.576;7.524;2023-08-30T10:38:27;97877.47;;;23.58;51.34
67818;BME280;54614;47.576;7.524;2023-08-30T10:40:55;97872.47;;;23.61;51.32
67818;BME280;54614;47.576;7.524;2023-08-30T10:43:35;97876.66;;;23.57;51.40
67818;BME280;54614;47.576;7.524;2023-08-30T10:46:05;97878.06;;;23.60;51.26
67818;BME280;54614;47.576;7.524;2023-08-30T10:48:41;97878.88;;;23.60;51.38
67818;BME280;54614;47.576;7.524;2023-08-30T10:51:37;97876.81;;;23.62;51.37
67818;BME280;54614;47.576;7.524;2023-08-30T10:54:16;97875.38;;;23.60;51.60
67818;BME280;54614;47.576;7.524;2023-08-30T10:56:47;97867.72;;;23.63;51.34
67818;BME280;54614;47.576;7.524;2023-08-30T10:59:20;97866.06;;;23.62;51.57
67818;BME280;54614;47.576;7.524;2023-08-30T11:01:48;97862.94;;;23.65;51.30
67818;BME280;54614;47.576;7.524;2023-08-30T11:04:16;97859.22;;;23.66;51.65
67818;BME280;54614;47.576;7.524;2023-08-30T11:06:47;97865.63;;;23.65;51.43
67818;BME280;54614;47.576;7.524;2023-08-30T11:09:17;97861.88;;;23.66;51.57
67818;BME280;54614;47.576;7.524;2023-08-30T11:11:45;97851.75;;;23.68;51.25
67818;BME280;54614;47.576;7.524;2023-08-30T11:14:12;97857.94;;;23.69;51.44
67818;BME280;54614;47.576;7.524;2023-08-30T11:16:38;97854.22;;;23.70;51.52
67818;BME280;54614;47.576;7.524;2023-08-30T11:19:07;97851.31;;;23.71;51.03
67818;BME280;54614;47.576;7.524;2023-08-30T11:21:36;97851.31;;;23.71;51.20
67818;BME280;54614;47.576;7.524;2023-08-30T11:24:07;97850.84;;;23.74;51.30
67818;BME280;54614;47.576;7.524;2023-08-30T11:26:33;97838.25;;;23.75;51.27
67818;BME280;54614;47.576;7.524;2023-08-30T11:29:07;97842.22;;;23.72;51.19
67818;BME280;54614;47.576;7.524;2023-08-30T11:31:34;97833.09;;;23.73;51.22
67818;BME280;54614;47.576;7.524;2023-08-30T11:34:00;97837.81;;;23.78;51.18
67818;BME280;54614;47.576;7.524;2023-08-30T11:36:29;97838.84;;;23.77;51.59
67818;BME280;54614;47.576;7.524;2023-08-30T11:38:56;97839.06;;;23.75;51.52
67818;BME280;54614;47.576;7.524;2023-08-30T11:41:24;97831.59;;;23.77;51.56
67818;BME280;54614;47.576;7.524;2023-08-30T11:43:54;97837.44;;;23.74;51.58
67818;BME280;54614;47.576;7.524;2023-08-30T11:46:21;97833.69;;;23.75;51.80
67818;BME280;54614;47.576;7.524;2023-08-30T11:48:49;97829.81;;;23.71;51.49
67818;BME280;54614;47.576;7.524;2023-08-30T11:51:17;97831.25;;;23.74;51.54
67818;BME280;54614;47.576;7.524;2023-08-30T11:53:45;97824.00;;;23.74;51.40
67818;BME280;54614;47.576;7.524;2023-08-30T11:56:12;97821.69;;;23.78;51.57
67818;BME280;54614;47.576;7.524;2023-08-30T11:58:38;97828.69;;;23.79;51.45
67818;BME280;54614;47.576;7.524;2023-08-30T12:01:05;97828.31;;;23.75;51.64
67818;BME280;54614;47.576;7.524;2023-08-30T12:03:31;97826.47;;;23.76;51.78
67818;BME280;54614;47.576;7.524;2023-08-30T12:05:58;97828.94;;;23.77;51.66
67818;BME280;54614;47.576;7.524;2023-08-30T12:08:29;97822.50;;;23.78;51.60
67818;BME280;54614;47.576;7.524;2023-08-30T12:10:57;97812.13;;;23.82;51.50
67818;BME280;54614;47.576;7.524;2023-08-30T12:13:34;97809.44;;;23.82;51.67
67818;BME280;54614;47.576;7.524;2023-08-30T12:16:02;97812.72;;;23.84;51.70
67818;BME280;54614;47.576;7.524;2023-08-30T12:18:32;97807.38;;;23.84;51.72
67818;BME280;54614;47.576;7.524;2023-08-30T12:21:03;97806.69;;;23.89;51.61
67818;BME280;54614;47.576;7.524;2023-08-30T12:23:33;97810.28;;;23.83;51.74
67818;BME280;54614;47.576;7.524;2023-08-30T12:28:32;97809.00;;;23.85;51.52
67818;BME280;54614;47.576;7.524;2023-08-30T12:30:59;97812.72;;;23.84;51.68
67818;BME280;54614;47.576;7.524;2023-08-30T12:33:25;97815.41;;;23.84;51.62
67818;BME280;54614;47.576;7.524;2023-08-30T12:35:52;97808.78;;;23.87;51.79
67818;BME280;54614;47.576;7.524;2023-08-30T12:38:18;97812.28;;;23.87;51.41
67818;BME280;54614;47.576;7.524;2023-08-30T12:40:46;97813.09;;;23.88;51.76
67818;BME280;54614;47.576;7.524;2023-08-30T12:43:13;97813.34;;;23.86;51.87
67818;BME280;54614;47.576;7.524;2023-08-30T12:45:40;97818.19;;;23.77;52.14
67818;BME280;54614;47.576;7.524;2023-08-30T12:48:07;97808.63;;;23.82;51.97
67818;BME280;54614;47.576;7.524;2023-08-30T12:50:35;97805.44;;;23.73;51.99
67818;BME280;54614;47.576;7.524;2023-08-30T12:53:05;97813.63;;;23.78;52.04
67818;BME280;54614;47.576;7.524;2023-08-30T12:55:32;97807.44;;;23.77;51.70
67818;BME280;54614;47.576;7.524;2023-08-30T12:57:58;97807.81;;;23.81;51.76
67818;BME280;54614;47.576;7.524;2023-08-30T13:00:24;97812.81;;;23.77;51.86
67818;BME280;54614;47.576;7.524;2023-08-30T13:02:50;97811.09;;;23.83;51.75
67818;BME280;54614;47.576;7.524;2023-08-30T13:05:16;97816.25;;;23.85;52.00
67818;BME280;54614;47.576;7.524;2023-08-30T13:07:42;97809.59;;;23.87;51.93
67818;BME280;54614;47.576;7.524;2023-08-30T13:10:09;97809.44;;;23.82;52.04
67818;BME280;54614;47.576;7.524;2023-08-30T13:12:36;97811.78;;;23.78;52.09
67818;BME280;54614;47.576;7.524;2023-08-30T13:15:03;97808.25;;;23.78;51.98